Strona główna
METAR-TAF:

METAR-TAF

Lotnisko :

Washington, Pensylwania, Stany Zjednoczone

Szerokość geograficzna: 40-08N, Długość geograficzna: 080-17W, wysokość: 361 m

Aktualna obserwacja pogody

Raport powstał 43 minut temu, godzina 08:56 UTC
Wiatr 5 kt od zachód
Temperatura 23°C
Wilgotność 100%
Ciśnienie 1017 hPa
Widzialność: 14.5 km
bezchmurnie

METAR: KAFJ 200856Z AUTO 27005KT 9SM CLR 23/23 A3004 RMK AO2 SLP162 T02330228 53006

czas: 05:39 (09:39 UTC)


TAF: brakujący

Obserwacja i prognoza pogody dla ponad 4000 lotnisk (raport METAR i TAF).

Dostępne stacje oznaczono żółtymi i czerwonymi punktami na mapie.

Najedź kursorem aby zobaczyć nazwę stacji.

Kliknij aby zobaczyć obserwacje i prognozy pogody.

Aby zmienić mapę: kliknij na zielony przycisk z czarnym krzyżykiem, aby powiększyć; na zielony przycisk z myślnikiem, aby pomniejszyć; na zielone strzałki, aby przejść do map sąsiednich.


METAR-TAF: